European Highlander — C6SN6 — position and weather

sailwx.info

Track history (hours):
 
Tides and Currents Weather Stations Pressure Air Temp Water Temp Dewpoint Dewpoint Depression Visibility Wind Speed Wind Dir Waves Ship Positions

European Highlander

Operator: P&O Irish Sea Ltd

Last reported at 2018-Nov-11 02:32 UTC. Time now 2018-Nov-18 17:20 UTC.
Position N 54°51' W 005°48'.

Length 161 m; draft 5.5 m.

Type: Passenger vessel. MMSI: 311404000.

Date/timePositionNaut miles runAvg speedWind from/ knotsBaromVisibWave heightAir tempDewpointWater temp
2018-Nov-11 02:32N 54°51' W 005°48'0 0.0
2018-Nov-11 02:02N 54°51' W 005°48'0 0.0
2018-Nov-11 01:32N 54°51' W 005°48'0 0.0
2018-Nov-11 01:02N 54°51' W 005°48'0 0.0
2018-Nov-11 00:32N 54°51' W 005°48'0 0.0
2018-Nov-11 00:02N 54°51' W 005°48'0 0.0
2018-Nov-10 23:32N 54°51' W 005°48'0 0.0
2018-Nov-10 23:02N 54°51' W 005°48'0 0.0
2018-Nov-10 22:32N 54°51' W 005°48'0 0.0
2018-Nov-10 22:02N 54°51' W 005°48'1 1.4
2018-Nov-10 21:32N 54°52' W 005°48'816.5
2018-Nov-10 21:02N 54°55' W 005°35'917.9
2018-Nov-10 20:32N 54°59' W 005°21'1015.0
2018-Nov-10 19:52N 54°59' W 005°03'2 5.3
2018-Nov-10 19:30N 54°58' W 005°01'0 0.0
2018-Nov-10 19:00N 54°58' W 005°01'0 0.0
2018-Nov-10 18:32N 54°58' W 005°01'5 9.4
2018-Nov-10 18:01N 55°01' W 005°06'817.0
2018-Nov-10 17:32N 54°58' W 005°19'918.1
2018-Nov-10 17:02N 54°55' W 005°34'917.2
2018-Nov-10 16:32N 54°51' W 005°48'1 1.3
2018-Nov-10 16:01N 54°51' W 005°48'0 0.0
2018-Nov-10 15:31N 54°51' W 005°48'4 8.9
2018-Nov-10 15:02N 54°53' W 005°42'917.6
2018-Nov-10 14:33N 54°57' W 005°28'816.5
2018-Nov-10 14:03N 55°01' W 005°16'814.2
2018-Nov-10 13:30N 54°59' W 005°03'2 1.8
2018-Nov-10 12:38N 54°58' W 005°01'0 0.0
2018-Nov-10 12:32N 54°58' W 005°01'611.7
2018-Nov-10 12:02N 55°01' W 005°09'917.7
2018-Nov-10 11:32N 54°57' W 005°22'918.3
2018-Nov-10 11:02N 54°54' W 005°37'713.9
2018-Nov-10 10:33N 54°51' W 005°48'0 0.1
2018-Nov-10 10:02N 54°51' W 005°48'0 0.0
2018-Nov-10 09:32N 54°51' W 005°48'510.1
2018-Nov-10 09:02N 54°53' W 005°40'816.9
2018-Nov-10 08:32N 54°57' W 005°27'917.6
2018-Nov-10 08:02N 55°01' W 005°13'714.1
2018-Nov-10 07:32N 54°58' W 005°02'1 1.6
2018-Nov-10 07:01N 54°58' W 005°01'0 0.0
2018-Nov-10 06:28N 54°58' W 005°01'0 0.0
2018-Nov-10 06:01N 54°58' W 005°01'5 7.8
2018-Nov-10 05:22N 55°02' W 005°07'617.4
2018-Nov-10 05:02N 54°60' W 005°16'917.9
2018-Nov-10 04:32N 54°56' W 005°30'917.9
2018-Nov-10 04:02N 54°52' W 005°44'3 5.1
2018-Nov-10 03:33N 54°51' W 005°48'0 0.0
2018-Nov-10 03:00N 54°51' W 005°48'0 0.0
2018-Nov-10 02:30N 54°51' W 005°48'0 0.0
2018-Nov-10 02:03N 54°51' W 005°48'3 5.8
2018-Nov-10 01:33N 54°53' W 005°44'1019.6
2018-Nov-10 01:03N 54°58' W 005°29'918.4
2018-Nov-10 00:32N 55°02' W 005°15'816.7
2018-Nov-10 00:02N 54°58' W 005°02'1 1.5
2018-Nov-09 23:31N 54°58' W 005°01'0 0.0
2018-Nov-09 22:58N 54°58' W 005°01'0 0.0
2018-Nov-09 22:22N 54°58' W 005°01'0 0.0
2018-Nov-09 22:02N 54°58' W 005°01'612.0
2018-Nov-09 21:32N 55°01' W 005°10'1019.6
2018-Nov-09 21:02N 54°57' W 005°25'1020.6
2018-Nov-09 20:32N 54°53' W 005°41'4 3.5
2018-Nov-09 19:15N 54°51' W 005°48'0 0.0
2018-Nov-09 18:45N 54°51' W 005°48'0 0.0
2018-Nov-09 18:33N 54°51' W 005°48'510.4
2018-Nov-09 18:02N 54°54' W 005°40'919.2
2018-Nov-09 17:32N 54°59' W 005°27'1019.2
2018-Nov-09 17:02N 55°02' W 005°11'713.5
2018-Nov-09 16:32N 54°58' W 005°01'0 0.0
2018-Nov-09 16:00N 54°58' W 005°01'0 0.0
2018-Nov-09 15:32N 54°58' W 005°01'5 8.5
2018-Nov-09 14:57N 55°02' W 005°06'820.1
2018-Nov-09 14:33N 54°59' W 005°20'1019.5
2018-Nov-09 14:02N 54°55' W 005°35'816.2
2018-Nov-09 13:32N 54°51' W 005°48'0 0.3
2018-Nov-09 13:02N 54°51' W 005°48'0 0.0
2018-Nov-09 12:32N 54°51' W 005°48'3 6.3
2018-Nov-09 12:02N 54°53' W 005°44'1020.8
2018-Nov-09 11:32N 54°59' W 005°29'1021.1
2018-Nov-09 11:02N 55°02' W 005°12'714.5
2018-Nov-09 10:32N 54°58' W 005°01'0 0.0
2018-Nov-09 09:58N 54°58' W 005°01'0 0.1
2018-Nov-09 09:32N 54°58' W 005°01'5 9.2
2018-Nov-09 09:00N 55°02' W 005°06'816.5
2018-Nov-09 08:33N 54°58' W 005°18'917.3
2018-Nov-09 08:03N 54°55' W 005°32'918.5
2018-Nov-09 07:33N 54°52' W 005°47'1 1.5
2018-Nov-09 06:54N 54°51' W 005°48'0 0.0
2018-Nov-09 06:27N 54°51' W 005°48'0 0.0
2018-Nov-09 06:00N 54°51' W 005°48'3 5.4
2018-Nov-09 05:32N 54°52' W 005°45'1019.3
2018-Nov-09 05:03N 54°57' W 005°30'1019.4
2018-Nov-09 04:33N 55°01' W 005°14'714.9
2018-Nov-09 04:03N 54°58' W 005°02'1 1.3
2018-Nov-09 03:29N 54°58' W 005°01'0 0.0
2018-Nov-09 02:47N 54°58' W 005°01'0 0.0
2018-Nov-09 02:32N 54°58' W 005°01'0 0.0
2018-Nov-09 02:02N 54°58' W 005°01'5 7.9
2018-Nov-09 01:25N 55°02' W 005°06'719.5
2018-Nov-09 01:02N 54°59' W 005°18'1019.8
2018-Nov-09 00:32N 54°55' W 005°34'917.7
2018-Nov-09 00:03N 54°51' W 005°48'0 0.2
2018-Nov-08 23:30N 54°51' W 005°48'0 0.0
2018-Nov-08 23:00N 54°51' W 005°48'0 0.0
2018-Nov-08 22:30N 54°51' W 005°48'0 0.0
2018-Nov-08 22:01N 54°51' W 005°48'510.2
2018-Nov-08 21:33N 54°53' W 005°41'917.0
2018-Nov-08 21:03N 54°57' W 005°27'917.7
2018-Nov-08 20:33N 55°01' W 005°13'713.7
2018-Nov-08 20:03N 54°59' W 005°02'1 2.0
2018-Nov-08 19:31N 54°58' W 005°01'0 0.0
2018-Nov-08 18:58N 54°58' W 005°01'0 0.0
2018-Nov-08 18:32N 54°58' W 005°01'5 9.7
2018-Nov-08 18:01N 55°01' W 005°07'918.6
2018-Nov-08 17:33N 54°58' W 005°21'1019.6
2018-Nov-08 17:02N 54°54' W 005°37'714.5
2018-Nov-08 16:32N 54°51' W 005°48'0 0.1
2018-Nov-08 16:02N 54°51' W 005°48'0 0.0
2018-Nov-08 15:32N 54°51' W 005°48'510.4
2018-Nov-08 15:03N 54°54' W 005°41'816.6
2018-Nov-08 14:33N 54°58' W 005°28'816.3
2018-Nov-08 14:03N 55°01' W 005°15'713.7
2018-Nov-08 13:32N 54°59' W 005°03'2 3.4
2018-Nov-08 12:59N 54°58' W 005°01'0 0.0
2018-Nov-08 12:32N 54°58' W 005°01'5 9.1
2018-Nov-08 11:59N 55°02' W 005°06'920.3
2018-Nov-08 11:32N 54°58' W 005°21'1020.0
2018-Nov-08 11:02N 54°54' W 005°37'714.1
2018-Nov-08 10:32N 54°51' W 005°48'0 0.0
2018-Nov-08 09:58N 54°51' W 005°48'0 0.0
2018-Nov-08 09:32N 54°51' W 005°48'611.6
2018-Nov-08 09:02N 54°54' W 005°39'816.6
2018-Nov-08 08:32N 54°58' W 005°26'917.2
2018-Nov-08 08:02N 55°01' W 005°13'713.3
2018-Nov-08 07:32N 54°58' W 005°02'1 1.6
2018-Nov-08 07:01N 54°58' W 005°01'0 0.0
2018-Nov-08 06:28N 54°58' W 005°01'0 0.0
2018-Nov-08 05:59N 54°58' W 005°01'5 8.1
2018-Nov-08 05:23N 55°02' W 005°06'618.0
2018-Nov-08 05:03N 54°59' W 005°16'918.0
2018-Nov-08 04:33N 54°56' W 005°31'917.9
2018-Nov-08 04:02N 54°52' W 005°45'2 4.3
2018-Nov-08 03:32N 54°51' W 005°48'0 0.0
2018-Nov-08 03:02N 54°51' W 005°48'0 0.0
2018-Nov-08 02:32N 54°51' W 005°48'0 0.0
2018-Nov-08 02:02N 54°51' W 005°48'510.4
2018-Nov-08 01:32N 54°54' W 005°41'917.9
2018-Nov-08 01:03N 54°58' W 005°27'617.3
2018-Nov-08 00:43N 55°00' W 005°18'316.9
2018-Nov-08 00:32N 55°01' W 005°13'116.2
2018-Nov-08 00:28N 55°01' W 005°11'614.4
2018-Nov-08 00:03N 54°58' W 005°02'1 1.2
2018-Nov-07 23:29N 54°58' W 005°01'0 0.0
2018-Nov-07 22:53N 54°58' W 005°01'0 0.0
2018-Nov-07 22:12N 54°58' W 005°01'0 1.7
2018-Nov-07 22:02N 54°58' W 005°01'714.4
2018-Nov-07 21:32N 55°00' W 005°13'1019.9
2018-Nov-07 21:02N 54°56' W 005°28'1020.6
2018-Nov-07 20:32N 54°52' W 005°45'2 3.8
2018-Nov-07 20:00N 54°51' W 005°48'0 0.0
2018-Nov-07 19:30N 54°51' W 005°48'0 0.0
2018-Nov-07 19:00N 54°51' W 005°48'0 0.0
2018-Nov-07 18:32N 54°51' W 005°48'511.0
2018-Nov-07 18:02N 54°54' W 005°40'817.0
2018-Nov-07 17:32N 54°58' W 005°27'917.7
2018-Nov-07 17:02N 55°01' W 005°12'713.5
2018-Nov-07 16:32N 54°58' W 005°02'1 1.2
2018-Nov-07 16:01N 54°58' W 005°01'0 0.0
2018-Nov-07 15:32N 54°58' W 005°01'5 8.3
2018-Nov-07 14:56N 55°02' W 005°07'819.7
2018-Nov-07 14:32N 54°58' W 005°19'1020.3
2018-Nov-07 14:03N 54°55' W 005°35'816.2
2018-Nov-07 13:33N 54°51' W 005°48'0 0.2
2018-Nov-07 13:02N 54°51' W 005°48'0 0.0
2018-Nov-07 12:32N 54°51' W 005°48'3 6.1
2018-Nov-07 12:02N 54°53' W 005°44'1019.6
2018-Nov-07 11:32N 54°58' W 005°29'1019.9
2018-Nov-07 11:02N 55°01' W 005°13'714.7
2018-Nov-07 10:32N 54°58' W 005°01'0 0.2
2018-Nov-07 10:00N 54°58' W 005°01'0 0.0
2018-Nov-07 09:32N 54°58' W 005°01'5 8.3
2018-Nov-07 08:57N 55°02' W 005°06'818.6
2018-Nov-07 08:32N 54°59' W 005°18'1019.4
2018-Nov-07 08:02N 54°55' W 005°34'917.7
2018-Nov-07 07:32N 54°51' W 005°48'0 0.2
2018-Nov-07 07:02N 54°51' W 005°48'0 0.0
2018-Nov-07 06:32N 54°51' W 005°48'0 0.0
2018-Nov-07 06:02N 54°51' W 005°48'2 4.9
2018-Nov-07 05:32N 54°52' W 005°45'917.6
2018-Nov-07 05:03N 54°56' W 005°31'917.9
2018-Nov-07 04:32N 55°00' W 005°17'20 4.0
2018-Nov-06 23:30N 54°51' W 005°48'0 0.0
2018-Nov-06 23:00N 54°51' W 005°48'0 0.0
2018-Nov-06 22:00N 54°51' W 005°48'511.0
2018-Nov-06 21:31N 54°54' W 005°40'919.5
2018-Nov-06 21:03N 54°58' W 005°26'119.6
2018-Nov-06 21:01N 54°58' W 005°25'1020.0
2018-Nov-06 20:30N 55°02' W 005°08'612.8
2018-Nov-06 20:03N 54°58' W 005°01'0 0.0
2018-Nov-06 20:00N 54°58' W 005°01'0 0.0
2018-Nov-06 19:30N 54°58' W 005°01'0 0.0
2018-Nov-06 19:00N 54°58' W 005°01'0 0.0
2018-Nov-06 18:30N 54°58' W 005°01'5 8.0
2018-Nov-06 17:53N 55°02' W 005°07'718.4
2018-Nov-06 17:30N 54°59' W 005°18'920.0
2018-Nov-06 17:04N 54°55' W 005°32'120.7
2018-Nov-06 17:01N 54°55' W 005°34'918.0
2018-Nov-06 16:31N 54°51' W 005°48'0 0.2
2018-Nov-06 16:01N 54°51' W 005°48'0 0.0
2018-Nov-06 15:58N 54°51' W 005°48'0 0.0
2018-Nov-06 15:30N 54°51' W 005°48'4 9.3
2018-Nov-06 15:04N 54°53' W 005°42'117.6
2018-Nov-06 15:01N 54°54' W 005°41'816.4
2018-Nov-06 14:30N 54°58' W 005°28'716.6
2018-Nov-06 14:03N 55°00' W 005°16'116.8
2018-Nov-06 14:01N 55°00' W 005°15'714.3
2018-Nov-06 13:30N 54°59' W 005°02'1 3.0
2018-Nov-06 13:03N 54°58' W 005°01'0 0.0
2018-Nov-06 13:00N 54°58' W 005°01'0 0.0
2018-Nov-06 12:30N 54°58' W 005°01'5 8.8
2018-Nov-06 11:57N 55°02' W 005°06'818.9
2018-Nov-06 11:30N 54°58' W 005°19'919.0
2018-Nov-06 11:03N 54°55' W 005°33'119.1
2018-Nov-06 11:00N 54°54' W 005°34'816.8
2018-Nov-06 10:31N 54°51' W 005°48'0 0.2
2018-Nov-06 10:03N 54°51' W 005°48'0 0.0
2018-Nov-06 10:00N 54°51' W 005°48'0 0.0
2018-Nov-06 09:30N 54°51' W 005°48'3 6.9
2018-Nov-06 09:04N 54°53' W 005°44'117.1
2018-Nov-06 09:01N 54°53' W 005°42'917.2
2018-Nov-06 08:31N 54°57' W 005°29'817.6
2018-Nov-06 08:04N 55°00' W 005°16'118.2
2018-Nov-06 08:01N 55°01' W 005°15'714.0
2018-Nov-06 07:30N 54°59' W 005°03'2 3.1
2018-Nov-06 06:58N 54°58' W 005°01'0 0.0
2018-Nov-06 06:25N 54°58' W 005°01'0 0.0
2018-Nov-06 06:01N 54°58' W 005°01'0 0.1
2018-Nov-06 05:58N 54°58' W 005°01'5 8.0
2018-Nov-06 05:21N 55°01' W 005°07'518.6
2018-Nov-06 05:04N 54°60' W 005°15'119.6
2018-Nov-06 05:00N 54°59' W 005°17'1020.2
2018-Nov-06 04:31N 54°55' W 005°33'919.2
2018-Nov-06 04:03N 54°52' W 005°47'013.3
2018-Nov-06 04:01N 54°51' W 005°48'1 1.0
2018-Nov-06 03:29N 54°51' W 005°48'0 0.0
2018-Nov-06 03:02N 54°51' W 005°48'0 0.1
2018-Nov-06 02:59N 54°51' W 005°48'0 0.0
2018-Nov-06 02:29N 54°51' W 005°48'0 0.0
2018-Nov-06 02:02N 54°51' W 005°48'0 0.0
2018-Nov-06 02:00N 54°51' W 005°48'4 8.9
2018-Nov-06 01:31N 54°53' W 005°42'1717.1
2018-Nov-06 00:31N 55°01' W 005°15'8 8.0
2018-Nov-05 23:28N 54°58' W 005°01'0 0.0
2018-Nov-05 22:55N 54°58' W 005°01'0 0.0
2018-Nov-05 22:26N 54°58' W 005°01'5 8.7
2018-Nov-05 21:51N 55°02' W 005°07'718.9
2018-Nov-05 21:30N 54°59' W 005°17'919.5
2018-Nov-05 21:03N 54°55' W 005°31'119.4
2018-Nov-05 21:01N 54°55' W 005°32'918.4
2018-Nov-05 20:30N 54°51' W 005°48'1 1.2
2018-Nov-05 20:03N 54°51' W 005°48'0 0.0
2018-Nov-05 20:00N 54°51' W 005°48'0 0.0
2018-Nov-05 19:30N 54°51' W 005°48'0 0.0
2018-Nov-05 19:03N 54°51' W 005°48'0 0.0
2018-Nov-05 19:00N 54°51' W 005°48'0 0.0
2018-Nov-05 18:30N 54°51' W 005°48'510.8
2018-Nov-05 18:03N 54°53' W 005°41'119.8
2018-Nov-05 18:00N 54°54' W 005°39'1020.2
2018-Nov-05 17:30N 54°58' W 005°23'1020.3
2018-Nov-05 17:02N 55°02' W 005°08'117.1
2018-Nov-05 17:00N 55°02' W 005°06'5 7.6
2018-Nov-05 16:20N 54°58' W 005°01'0 0.0
2018-Nov-05 16:02N 54°58' W 005°01'0 0.0
2018-Nov-05 15:56N 54°58' W 005°01'0 0.7
2018-Nov-05 15:30N 54°58' W 005°01'612.8
2018-Nov-05 15:03N 55°01' W 005°09'118.4
2018-Nov-05 15:00N 55°01' W 005°11'1019.8
2018-Nov-05 14:30N 54°56' W 005°26'919.8
2018-Nov-05 14:03N 54°53' W 005°41'119.5
2018-Nov-05 14:00N 54°53' W 005°42'4 4.0
2018-Nov-05 13:03N 54°51' W 005°48'0 0.0
2018-Nov-05 13:00N 54°51' W 005°48'0 0.0
2018-Nov-05 12:31N 54°51' W 005°48'4 8.6
2018-Nov-05 12:03N 54°53' W 005°42'118.2
2018-Nov-05 12:00N 54°54' W 005°41'917.9
2018-Nov-05 11:30N 54°58' W 005°27'817.3
2018-Nov-05 11:03N 55°01' W 005°15'116.9
2018-Nov-05 11:00N 55°01' W 005°13'714.1
2018-Nov-05 10:30N 54°58' W 005°02'1 2.1
2018-Nov-05 10:03N 54°58' W 005°01'0 0.0
2018-Nov-05 09:48N 54°58' W 005°01'0 0.0
2018-Nov-05 09:30N 54°58' W 005°01'811.2
2018-Nov-05 08:46N 55°00' W 005°14'2117.6
2018-Nov-05 07:34N 54°51' W 005°48'0 1.0
2018-Nov-05 07:29N 54°51' W 005°48'0 0.0
2018-Nov-05 05:46N 54°51' W 005°48'713.7
2018-Nov-05 05:17N 54°54' W 005°38'1217.4
2018-Nov-05 04:36N 54°59' W 005°19'3 0.8
2018-Nov-05 01:16N 55°00' W 005°14'1620.2
2018-Nov-05 00:30N 54°54' W 005°39'6 4.4
2018-Nov-04 23:11N 54°51' W 005°48'0 0.0
2018-Nov-04 23:02N 54°51' W 005°48'0 0.0
2018-Nov-04 22:59N 54°51' W 005°48'0 0.0
2018-Nov-04 22:29N 54°51' W 005°48'0 0.0
2018-Nov-04 22:02N 54°51' W 005°48'0 0.1
2018-Nov-04 21:59N 54°51' W 005°48'3 6.1
2018-Nov-04 21:31N 54°53' W 005°44'818.7
2018-Nov-04 21:03N 54°57' W 005°31'118.4
2018-Nov-04 21:01N 54°57' W 005°29'918.5
2018-Nov-04 20:31N 55°00' W 005°15'714.3
2018-Nov-04 20:02N 54°59' W 005°03'013.4
2018-Nov-04 20:00N 54°59' W 005°03'1 1.6
2018-Nov-04 19:08N 54°58' W 005°01'0 0.0
2018-Nov-04 19:02N 54°58' W 005°01'0 0.0
2018-Nov-04 18:53N 54°58' W 005°01'0 0.0
2018-Nov-04 18:30N 54°58' W 005°01'5 9.9
2018-Nov-04 18:00N 55°02' W 005°07'1819.2
2018-Nov-04 17:04N 54°54' W 005°35'120.6
2018-Nov-04 17:00N 54°54' W 005°37'713.5
2018-Nov-04 16:30N 54°51' W 005°48'0 0.1
2018-Nov-04 16:02N 54°51' W 005°48'0 0.0
2018-Nov-04 15:59N 54°51' W 005°48'0 0.0
2018-Nov-04 15:30N 54°51' W 005°48'3 7.2
2018-Nov-04 15:03N 54°53' W 005°43'117.9
2018-Nov-04 15:01N 54°53' W 005°42'917.7
2018-Nov-04 14:30N 54°57' W 005°28'817.5
2018-Nov-04 14:03N 55°00' W 005°16'117.4
2018-Nov-04 14:00N 55°01' W 005°14'713.3
2018-Nov-04 13:30N 54°59' W 005°03'2 3.9
2018-Nov-04 13:02N 54°58' W 005°01'0 0.1
2018-Nov-04 12:59N 54°58' W 005°01'0 0.0
2018-Nov-04 12:29N 54°58' W 005°01'0 0.0
2018-Nov-04 12:02N 54°58' W 005°01'0 0.1
2018-Nov-04 11:59N 54°58' W 005°01'0 0.0
2018-Nov-04 11:29N 54°58' W 005°01'0 0.0
2018-Nov-04 10:56N 54°58' W 005°01'0 0.0
2018-Nov-04 10:26N 54°58' W 005°01'0 0.0
2018-Nov-04 09:59N 54°58' W 005°01'0 0.0
2018-Nov-04 09:30N 54°58' W 005°01'510.3
2018-Nov-04 09:03N 55°01' W 005°06'116.8
2018-Nov-04 09:00N 55°02' W 005°07'917.1
2018-Nov-04 08:30N 54°57' W 005°20'716.4
2018-Nov-04 08:03N 54°54' W 005°32'117.0
2018-Nov-04 08:00N 54°54' W 005°33'917.3
2018-Nov-04 07:31N 54°52' W 005°48'1 1.7
2018-Nov-04 07:02N 54°51' W 005°48'0 0.1
2018-Nov-04 06:59N 54°51' W 005°48'0 0.0
2018-Nov-04 06:29N 54°51' W 005°48'0 0.0
2018-Nov-04 06:02N 54°51' W 005°48'0 0.0
2018-Nov-04 05:59N 54°51' W 005°48'0 0.0
2018-Nov-04 05:29N 54°51' W 005°48'0 0.0
2018-Nov-04 05:02N 54°51' W 005°48'0 0.0
2018-Nov-04 04:53N 54°51' W 005°48'0 0.0
2018-Nov-04 04:29N 54°51' W 005°48'0 0.0
2018-Nov-04 04:02N 54°51' W 005°48'0 0.0
2018-Nov-04 03:59N 54°51' W 005°48'0 0.0
2018-Nov-04 03:26N 54°51' W 005°48'0 0.0
2018-Nov-04 03:02N 54°51' W 005°48'0 0.0
2018-Nov-04 02:59N 54°51' W 005°48'0 0.0
2018-Nov-04 02:29N 54°51' W 005°48'0 0.0
2018-Nov-04 01:56N 54°51' W 005°48'0 0.0
2018-Nov-04 01:29N 54°51' W 005°48'0 0.0
2018-Nov-04 01:02N 54°51' W 005°48'0 0.0
2018-Nov-04 00:59N 54°51' W 005°48'0 0.0
2018-Nov-04 00:29N 54°51' W 005°48'0 0.0
2018-Nov-03 23:59N 54°51' W 005°48'0 0.0
2018-Nov-03 23:29N 54°51' W 005°48'0 0.0
2018-Nov-03 23:02N 54°51' W 005°48'0 0.1
2018-Nov-03 22:59N 54°51' W 005°48'0 0.0
2018-Nov-03 22:29N 54°51' W 005°48'2110.7
2018-Nov-03 20:30N 55°01' W 005°15'714.1
2018-Nov-03 19:59N 54°59' W 005°03'2 2.8
2018-Nov-03 19:24N 54°58' W 005°01'0 0.0
2018-Nov-03 18:57N 54°58' W 005°01'0 0.0
2018-Nov-03 18:30N 54°58' W 005°01'5 9.6
2018-Nov-03 17:58N 55°02' W 005°07'816.5
2018-Nov-03 17:30N 54°58' W 005°19'817.1
2018-Nov-03 17:03N 54°55' W 005°31'117.7
2018-Nov-03 17:00N 54°55' W 005°32'918.2
2018-Nov-03 16:30N 54°52' W 005°47'1 2.3
2018-Nov-03 16:03N 54°51' W 005°48'0 0.0
2018-Nov-03 16:00N 54°51' W 005°48'0 0.0
2018-Nov-03 15:30N 54°51' W 005°48'1 2.1
2018-Nov-03 15:03N 54°52' W 005°48'114.4
2018-Nov-03 15:01N 54°52' W 005°47'1019.7
2018-Nov-03 14:30N 54°57' W 005°32'818.8
2018-Nov-03 14:04N 55°01' W 005°18'119.2
2018-Nov-03 14:00N 55°01' W 005°17'815.1
2018-Nov-03 13:28N 54°59' W 005°03'2 3.9
2018-Nov-03 13:03N 54°58' W 005°01'0 0.0
2018-Nov-03 12:51N 54°58' W 005°01'0 0.0
2018-Nov-03 12:30N 54°58' W 005°01'2 4.0
2018-Nov-03 12:03N 54°59' W 005°03'416.5
2018-Nov-03 11:51N 55°02' W 005°07'720.9
2018-Nov-03 11:30N 55°03' W 005°19'920.3
2018-Nov-03 11:03N 54°58' W 005°33'121.8
2018-Nov-03 11:00N 54°58' W 005°34'1020.3
2018-Nov-03 10:31N 54°51' W 005°48'0 0.4
2018-Nov-03 10:03N 54°51' W 005°48'0 0.0
2018-Nov-03 10:00N 54°51' W 005°48'0 0.0
2018-Nov-03 09:30N 54°51' W 005°48'1 3.2
2018-Nov-03 09:03N 54°52' W 005°47'116.9
2018-Nov-03 09:00N 54°52' W 005°46'1020.4
2018-Nov-03 08:30N 54°59' W 005°32'919.7
2018-Nov-03 08:03N 55°02' W 005°17'121.2
2018-Nov-03 08:00N 55°02' W 005°16'816.9
2018-Nov-03 07:30N 54°58' W 005°02'1 1.6
2018-Nov-03 06:56N 54°58' W 005°01'0 0.0
2018-Nov-03 06:26N 54°58' W 005°01'0 0.0
2018-Nov-03 06:02N 54°58' W 005°01'0 0.1
2018-Nov-03 05:56N 54°58' W 005°01'1 1.5
2018-Nov-03 05:30N 54°58' W 005°02'716.3
2018-Nov-03 05:03N 55°01' W 005°14'121.2
2018-Nov-03 05:00N 55°00' W 005°16'1121.6
2018-Nov-03 04:30N 54°56' W 005°32'1021.6
2018-Nov-03 04:04N 54°51' W 005°48'111.8
2018-Nov-03 04:01N 54°51' W 005°48'0 0.2
2018-Nov-03 03:30N 54°51' W 005°48'0 0.0
2018-Nov-03 03:03N 54°51' W 005°48'0 0.0
2018-Nov-03 02:57N 54°51' W 005°48'0 0.0
2018-Nov-03 02:30N 54°51' W 005°48'0 0.0
2018-Nov-03 02:03N 54°51' W 005°48'0 0.0
2018-Nov-03 02:00N 54°51' W 005°48'2 3.9
2018-Nov-03 01:30N 54°52' W 005°46'920.4
2018-Nov-03 01:04N 54°57' W 005°33'120.6
2018-Nov-03 01:01N 54°58' W 005°31'1019.7
2018-Nov-03 00:29N 55°02' W 005°14'716.5
2018-Nov-03 00:03N 54°59' W 005°03'114.5
2018-Nov-03 00:01N 54°59' W 005°02'1 2.1
2018-Nov-02 23:30N 54°58' W 005°01'0 0.0
2018-Nov-02 23:03N 54°58' W 005°01'0 0.0
2018-Nov-02 23:00N 54°58' W 005°01'0 0.0
2018-Nov-02 22:30N 54°58' W 005°01'0 0.3
2018-Nov-02 22:03N 54°58' W 005°01'0 1.0
2018-Nov-02 22:00N 54°58' W 005°01'612.5
2018-Nov-02 21:30N 55°01' W 005°10'920.7
2018-Nov-02 21:04N 54°57' W 005°25'120.2
2018-Nov-02 21:00N 54°56' W 005°26'1019.9
2018-Nov-02 20:30N 54°53' W 005°42'4 8.4
2018-Nov-02 20:03N 54°51' W 005°48'0 0.0
2018-Nov-02 19:58N 54°51' W 005°48'0 0.0
2018-Nov-02 19:28N 54°51' W 005°48'0 0.0
2018-Nov-02 19:01N 54°51' W 005°48'0 0.1
2018-Nov-02 18:58N 54°51' W 005°48'0 0.0
2018-Nov-02 18:30N 54°51' W 005°48'510.2
2018-Nov-02 18:03N 54°53' W 005°41'119.3
2018-Nov-02 18:00N 54°54' W 005°40'1019.6
2018-Nov-02 17:30N 54°58' W 005°25'919.6
2018-Nov-02 17:03N 55°02' W 005°10'119.1
2018-Nov-02 17:00N 55°02' W 005°09'612.0
2018-Nov-02 16:30N 54°58' W 005°01'0 0.0
2018-Nov-02 16:02N 54°58' W 005°01'0 0.0
2018-Nov-02 15:44N 54°58' W 005°01'0 0.0
2018-Nov-02 15:30N 54°58' W 005°01'5 8.7
2018-Nov-02 14:56N 55°02' W 005°06'818.7
2018-Nov-02 14:30N 54°58' W 005°19'1021.0
2018-Nov-02 14:00N 54°54' W 005°36'814.2
2018-Nov-02 13:28N 54°51' W 005°48'0 0.0
2018-Nov-02 13:01N 54°51' W 005°48'0 0.0
2018-Nov-02 12:58N 54°51' W 005°48'0 0.0
2018-Nov-02 12:30N 54°51' W 005°48'511.3
2018-Nov-02 12:03N 54°54' W 005°41'118.4
2018-Nov-02 12:00N 54°54' W 005°39'918.0
2018-Nov-02 11:30N 54°58' W 005°25'817.6
2018-Nov-02 11:03N 55°01' W 005°12'117.8
2018-Nov-02 11:00N 55°01' W 005°11'713.5
2018-Nov-02 10:30N 54°58' W 005°01'0 0.0
2018-Nov-02 10:02N 54°58' W 005°01'0 0.0
2018-Nov-02 09:59N 54°58' W 005°01'0 0.0
2018-Nov-02 09:30N 54°58' W 005°01'5 9.3
2018-Nov-02 08:59N 55°01' W 005°06'817.4
2018-Nov-02 08:30N 54°58' W 005°20'817.4
2018-Nov-02 08:03N 54°55' W 005°32'117.3
2018-Nov-02 08:00N 54°55' W 005°33'917.4
2018-Nov-02 07:31N 54°52' W 005°48'1 1.6
2018-Nov-02 07:03N 54°51' W 005°48'0 0.0
2018-Nov-02 07:00N 54°51' W 005°48'0 0.0
2018-Nov-02 06:30N 54°51' W 005°48'0 0.0
2018-Nov-02 06:03N 54°51' W 005°48'0 0.2
2018-Nov-02 06:01N 54°51' W 005°48'5 9.8
2018-Nov-02 05:30N 54°54' W 005°41'919.8
2018-Nov-02 05:03N 54°58' W 005°27'119.9
2018-Nov-02 05:00N 54°58' W 005°25'918.3
2018-Nov-02 04:30N 55°01' W 005°11'613.7
2018-Nov-02 04:03N 54°58' W 005°02'0 9.7
2018-Nov-02 04:00N 54°58' W 005°01'0 0.0
2018-Nov-02 03:24N 54°58' W 005°01'0 0.0
2018-Nov-02 02:57N 54°58' W 005°01'0 0.0
2018-Nov-02 02:24N 54°58' W 005°01'0 0.0
2018-Nov-02 02:03N 54°58' W 005°01'0 0.3
2018-Nov-02 02:00N 54°58' W 005°01'510.4
2018-Nov-02 01:30N 55°02' W 005°07'816.9
2018-Nov-02 01:04N 54°58' W 005°19'117.5
2018-Nov-02 01:01N 54°58' W 005°20'117.9
2018-Nov-02 00:56N 54°57' W 005°22'618.1
2018-Nov-02 00:36N 54°55' W 005°32'218.6
2018-Nov-02 00:31N 54°54' W 005°35'817.4
2018-Nov-02 00:03N 54°51' W 005°48'0 9.3
2018-Nov-02 00:01N 54°51' W 005°48'0 0.2
2018-Nov-01 23:28N 54°51' W 005°48'0 0.0
2018-Nov-01 23:01N 54°51' W 005°48'0 0.0
2018-Nov-01 22:58N 54°51' W 005°48'0 0.0
2018-Nov-01 22:25N 54°51' W 005°48'0 0.0
2018-Nov-01 22:01N 54°51' W 005°48'0 0.0
2018-Nov-01 21:58N 54°51' W 005°48'3 6.6
2018-Nov-01 21:31N 54°53' W 005°44'919.4
2018-Nov-01 21:04N 54°57' W 005°30'120.7
2018-Nov-01 21:01N 54°57' W 005°29'1020.0
2018-Nov-01 20:31N 55°01' W 005°13'614.3
2018-Nov-01 20:04N 54°59' W 005°02'115.9
2018-Nov-01 20:00N 54°58' W 005°01'0 0.6
2018-Nov-01 19:30N 54°58' W 005°01'0 0.0
2018-Nov-01 19:03N 54°58' W 005°01'0 0.0
2018-Nov-01 18:51N 54°58' W 005°01'5 8.9
2018-Nov-01 18:17N 55°02' W 005°07'520.9
2018-Nov-01 18:03N 54°60' W 005°15'122.0
2018-Nov-01 18:01N 54°59' W 005°16'1121.7
2018-Nov-01 17:31N 54°55' W 005°33'920.0
2018-Nov-01 17:03N 54°51' W 005°48'0 1.6
2018-Nov-01 16:59N 54°51' W 005°48'0 0.1
2018-Nov-01 16:29N 54°51' W 005°48'0 0.0
2018-Nov-01 16:02N 54°51' W 005°48'0 0.0
2018-Nov-01 15:59N 54°51' W 005°48'0 0.0
2018-Nov-01 15:30N 54°51' W 005°48'4 9.3
2018-Nov-01 15:03N 54°53' W 005°42'119.4
2018-Nov-01 15:00N 54°53' W 005°40'1020.3
2018-Nov-01 14:30N 54°58' W 005°25'1019.9
2018-Nov-01 14:00N 55°02' W 005°08'610.7
2018-Nov-01 13:29N 54°58' W 005°01'0 0.0
2018-Nov-01 13:02N 54°58' W 005°01'0 0.0
2018-Nov-01 12:59N 54°58' W 005°01'0 0.1
2018-Nov-01 12:30N 54°58' W 005°01'512.1
2018-Nov-01 12:03N 55°02' W 005°08'117.5
2018-Nov-01 12:00N 55°02' W 005°09'918.3
2018-Nov-01 11:30N 54°57' W 005°23'818.8
2018-Nov-01 11:03N 54°54' W 005°37'119.0
2018-Nov-01 11:00N 54°54' W 005°38'612.1
2018-Nov-01 10:30N 54°51' W 005°48'0 0.0
2018-Nov-01 10:01N 54°51' W 005°48'0 0.0
2018-Nov-01 09:58N 54°51' W 005°48'0 0.0
2018-Nov-01 09:30N 54°51' W 005°48'4 9.1
2018-Nov-01 09:03N 54°53' W 005°42'118.2
2018-Nov-01 09:00N 54°54' W 005°41'917.4
2018-Nov-01 08:30N 54°58' W 005°27'816.9
2018-Nov-01 08:03N 55°01' W 005°15'116.9
2018-Nov-01 08:00N 55°01' W 005°14'713.9
2018-Nov-01 07:30N 54°59' W 005°02'1 2.3
2018-Nov-01 07:02N 54°58' W 005°01'0 0.0
2018-Nov-01 06:53N 54°58' W 005°01'0 0.0
2018-Nov-01 06:29N 54°58' W 005°01'0 0.0
2018-Nov-01 05:57N 54°58' W 005°01'5 9.0
2018-Nov-01 05:24N 55°01' W 005°07'720.1
2018-Nov-01 05:03N 54°59' W 005°18'120.3
2018-Nov-01 05:00N 54°59' W 005°19'1019.0
2018-Nov-01 04:30N 54°55' W 005°34'818.1
2018-Nov-01 04:03N 54°52' W 005°47'113.8
2018-Nov-01 04:01N 54°51' W 005°48'0 0.6
2018-Nov-01 03:30N 54°51' W 005°48'0 0.0
2018-Nov-01 03:03N 54°51' W 005°48'0 0.0
2018-Nov-01 03:00N 54°51' W 005°48'  
Track history (hours):
 
Tides and Currents Weather Stations Pressure Air Temp Water Temp Dewpoint Dewpoint Depression Visibility Wind Speed Wind Dir Waves Ship Positions

European Highlander

Operator: P&O Irish Sea Ltd

Last reported at 2018-Nov-11 02:32 UTC. Time now 2018-Nov-18 17:20 UTC.
Position N 54°51' W 005°48'.

Length 161 m; draft 5.5 m.

Type: Passenger vessel. MMSI: 311404000.

Date/timePositionNaut miles runAvg speedWind from/ knotsBaromVisibWave heightAir tempDewpointWater temp
2018-Nov-11 02:32N 54°51' W 005°48'0 0.0
2018-Nov-11 02:02N 54°51' W 005°48'0 0.0
2018-Nov-11 01:32N 54°51' W 005°48'0 0.0
2018-Nov-11 01:02N 54°51' W 005°48'0 0.0
2018-Nov-11 00:32N 54°51' W 005°48'0 0.0
2018-Nov-11 00:02N 54°51' W 005°48'0 0.0
2018-Nov-10 23:32N 54°51' W 005°48'0 0.0
2018-Nov-10 23:02N 54°51' W 005°48'0 0.0
2018-Nov-10 22:32N 54°51' W 005°48'0 0.0
2018-Nov-10 22:02N 54°51' W 005°48'1 1.4
2018-Nov-10 21:32N 54°52' W 005°48'816.5
2018-Nov-10 21:02N 54°55' W 005°35'917.9
2018-Nov-10 20:32N 54°59' W 005°21'1015.0
2018-Nov-10 19:52N 54°59' W 005°03'2 5.3
2018-Nov-10 19:30N 54°58' W 005°01'0 0.0
2018-Nov-10 19:00N 54°58' W 005°01'0 0.0
2018-Nov-10 18:32N 54°58' W 005°01'5 9.4
2018-Nov-10 18:01N 55°01' W 005°06'817.0
2018-Nov-10 17:32N 54°58' W 005°19'918.1
2018-Nov-10 17:02N 54°55' W 005°34'917.2
2018-Nov-10 16:32N 54°51' W 005°48'1 1.3
2018-Nov-10 16:01N 54°51' W 005°48'0 0.0
2018-Nov-10 15:31N 54°51' W 005°48'4 8.9
2018-Nov-10 15:02N 54°53' W 005°42'917.6
2018-Nov-10 14:33N 54°57' W 005°28'816.5
2018-Nov-10 14:03N 55°01' W 005°16'814.2
2018-Nov-10 13:30N 54°59' W 005°03'2 1.8
2018-Nov-10 12:38N 54°58' W 005°01'0 0.0
2018-Nov-10 12:32N 54°58' W 005°01'611.7
2018-Nov-10 12:02N 55°01' W 005°09'917.7
2018-Nov-10 11:32N 54°57' W 005°22'918.3
2018-Nov-10 11:02N 54°54' W 005°37'713.9
2018-Nov-10 10:33N 54°51' W 005°48'0 0.1
2018-Nov-10 10:02N 54°51' W 005°48'0 0.0
2018-Nov-10 09:32N 54°51' W 005°48'510.1
2018-Nov-10 09:02N 54°53' W 005°40'816.9
2018-Nov-10 08:32N 54°57' W 005°27'917.6
2018-Nov-10 08:02N 55°01' W 005°13'714.1
2018-Nov-10 07:32N 54°58' W 005°02'1 1.6
2018-Nov-10 07:01N 54°58' W 005°01'0 0.0
2018-Nov-10 06:28N 54°58' W 005°01'0 0.0
2018-Nov-10 06:01N 54°58' W 005°01'5 7.8
2018-Nov-10 05:22N 55°02' W 005°07'617.4
2018-Nov-10 05:02N 54°60' W 005°16'917.9
2018-Nov-10 04:32N 54°56' W 005°30'917.9
2018-Nov-10 04:02N 54°52' W 005°44'3 5.1
2018-Nov-10 03:33N 54°51' W 005°48'0 0.0
2018-Nov-10 03:00N 54°51' W 005°48'0 0.0
2018-Nov-10 02:30N 54°51' W 005°48'0 0.0
2018-Nov-10 02:03N 54°51' W 005°48'3 5.8
2018-Nov-10 01:33N 54°53' W 005°44'1019.6
2018-Nov-10 01:03N 54°58' W 005°29'918.4
2018-Nov-10 00:32N 55°02' W 005°15'816.7
2018-Nov-10 00:02N 54°58' W 005°02'1 1.5
2018-Nov-09 23:31N 54°58' W 005°01'0 0.0
2018-Nov-09 22:58N 54°58' W 005°01'0 0.0
2018-Nov-09 22:22N 54°58' W 005°01'0 0.0
2018-Nov-09 22:02N 54°58' W 005°01'612.0
2018-Nov-09 21:32N 55°01' W 005°10'1019.6
2018-Nov-09 21:02N 54°57' W 005°25'1020.6
2018-Nov-09 20:32N 54°53' W 005°41'4 3.5
2018-Nov-09 19:15N 54°51' W 005°48'0 0.0
2018-Nov-09 18:45N 54°51' W 005°48'0 0.0
2018-Nov-09 18:33N 54°51' W 005°48'510.4
2018-Nov-09 18:02N 54°54' W 005°40'919.2
2018-Nov-09 17:32N 54°59' W 005°27'1019.2
2018-Nov-09 17:02N 55°02' W 005°11'713.5
2018-Nov-09 16:32N 54°58' W 005°01'0 0.0
2018-Nov-09 16:00N 54°58' W 005°01'0 0.0
2018-Nov-09 15:32N 54°58' W 005°01'5 8.5
2018-Nov-09 14:57N 55°02' W 005°06'820.1
2018-Nov-09 14:33N 54°59' W 005°20'1019.5
2018-Nov-09 14:02N 54°55' W 005°35'816.2
2018-Nov-09 13:32N 54°51' W 005°48'0 0.3
2018-Nov-09 13:02N 54°51' W 005°48'0 0.0
2018-Nov-09 12:32N 54°51' W 005°48'3 6.3
2018-Nov-09 12:02N 54°53' W 005°44'1020.8
2018-Nov-09 11:32N 54°59' W 005°29'1021.1
2018-Nov-09 11:02N 55°02' W 005°12'714.5
2018-Nov-09 10:32N 54°58' W 005°01'0 0.0
2018-Nov-09 09:58N 54°58' W 005°01'0 0.1
2018-Nov-09 09:32N 54°58' W 005°01'5 9.2
2018-Nov-09 09:00N 55°02' W 005°06'816.5
2018-Nov-09 08:33N 54°58' W 005°18'917.3
2018-Nov-09 08:03N 54°55' W 005°32'918.5
2018-Nov-09 07:33N 54°52' W 005°47'1 1.5
2018-Nov-09 06:54N 54°51' W 005°48'0 0.0
2018-Nov-09 06:27N 54°51' W 005°48'0 0.0
2018-Nov-09 06:00N 54°51' W 005°48'3 5.4
2018-Nov-09 05:32N 54°52' W 005°45'1019.3
2018-Nov-09 05:03N 54°57' W 005°30'1019.4
2018-Nov-09 04:33N 55°01' W 005°14'714.9
2018-Nov-09 04:03N 54°58' W 005°02'1 1.3
2018-Nov-09 03:29N 54°58' W 005°01'0 0.0
2018-Nov-09 02:47N 54°58' W 005°01'0 0.0
2018-Nov-09 02:32N 54°58' W 005°01'0 0.0
2018-Nov-09 02:02N 54°58' W 005°01'5 7.9
2018-Nov-09 01:25N 55°02' W 005°06'719.5
2018-Nov-09 01:02N 54°59' W 005°18'1019.8
2018-Nov-09 00:32N 54°55' W 005°34'917.7
2018-Nov-09 00:03N 54°51' W 005°48'0 0.2
2018-Nov-08 23:30N 54°51' W 005°48'0 0.0
2018-Nov-08 23:00N 54°51' W 005°48'0 0.0
2018-Nov-08 22:30N 54°51' W 005°48'0 0.0
2018-Nov-08 22:01N 54°51' W 005°48'510.2
2018-Nov-08 21:33N 54°53' W 005°41'917.0
2018-Nov-08 21:03N 54°57' W 005°27'917.7
2018-Nov-08 20:33N 55°01' W 005°13'713.7
2018-Nov-08 20:03N 54°59' W 005°02'1 2.0
2018-Nov-08 19:31N 54°58' W 005°01'0 0.0
2018-Nov-08 18:58N 54°58' W 005°01'0 0.0
2018-Nov-08 18:32N 54°58' W 005°01'5 9.7
2018-Nov-08 18:01N 55°01' W 005°07'918.6
2018-Nov-08 17:33N 54°58' W 005°21'1019.6
2018-Nov-08 17:02N 54°54' W 005°37'714.5
2018-Nov-08 16:32N 54°51' W 005°48'0 0.1
2018-Nov-08 16:02N 54°51' W 005°48'0 0.0
2018-Nov-08 15:32N 54°51' W 005°48'510.4
2018-Nov-08 15:03N 54°54' W 005°41'816.6
2018-Nov-08 14:33N 54°58' W 005°28'816.3
2018-Nov-08 14:03N 55°01' W 005°15'713.7
2018-Nov-08 13:32N 54°59' W 005°03'2 3.4
2018-Nov-08 12:59N 54°58' W 005°01'0 0.0
2018-Nov-08 12:32N 54°58' W 005°01'5 9.1
2018-Nov-08 11:59N 55°02' W 005°06'920.3
2018-Nov-08 11:32N 54°58' W 005°21'1020.0
2018-Nov-08 11:02N 54°54' W 005°37'714.1
2018-Nov-08 10:32N 54°51' W 005°48'0 0.0
2018-Nov-08 09:58N 54°51' W 005°48'0 0.0
2018-Nov-08 09:32N 54°51' W 005°48'611.6
2018-Nov-08 09:02N 54°54' W 005°39'816.6
2018-Nov-08 08:32N 54°58' W 005°26'917.2
2018-Nov-08 08:02N 55°01' W 005°13'713.3
2018-Nov-08 07:32N 54°58' W 005°02'1 1.6
2018-Nov-08 07:01N 54°58' W 005°01'0 0.0
2018-Nov-08 06:28N 54°58' W 005°01'0 0.0
2018-Nov-08 05:59N 54°58' W 005°01'5 8.1
2018-Nov-08 05:23N 55°02' W 005°06'618.0
2018-Nov-08 05:03N 54°59' W 005°16'918.0
2018-Nov-08 04:33N 54°56' W 005°31'917.9
2018-Nov-08 04:02N 54°52' W 005°45'2 4.3
2018-Nov-08 03:32N 54°51' W 005°48'0 0.0
2018-Nov-08 03:02N 54°51' W 005°48'0 0.0
2018-Nov-08 02:32N 54°51' W 005°48'0 0.0
2018-Nov-08 02:02N 54°51' W 005°48'510.4
2018-Nov-08 01:32N 54°54' W 005°41'917.9
2018-Nov-08 01:03N 54°58' W 005°27'617.3
2018-Nov-08 00:43N 55°00' W 005°18'316.9
2018-Nov-08 00:32N 55°01' W 005°13'116.2
2018-Nov-08 00:28N 55°01' W 005°11'614.4
2018-Nov-08 00:03N 54°58' W 005°02'1 1.2
2018-Nov-07 23:29N 54°58' W 005°01'0 0.0
2018-Nov-07 22:53N 54°58' W 005°01'0 0.0
2018-Nov-07 22:12N 54°58' W 005°01'0 1.7
2018-Nov-07 22:02N 54°58' W 005°01'714.4
2018-Nov-07 21:32N 55°00' W 005°13'1019.9
2018-Nov-07 21:02N 54°56' W 005°28'1020.6
2018-Nov-07 20:32N 54°52' W 005°45'2 3.8
2018-Nov-07 20:00N 54°51' W 005°48'0 0.0
2018-Nov-07 19:30N 54°51' W 005°48'0 0.0
2018-Nov-07 19:00N 54°51' W 005°48'0 0.0
2018-Nov-07 18:32N 54°51' W 005°48'511.0
2018-Nov-07 18:02N 54°54' W 005°40'817.0
2018-Nov-07 17:32N 54°58' W 005°27'917.7
2018-Nov-07 17:02N 55°01' W 005°12'713.5
2018-Nov-07 16:32N 54°58' W 005°02'1 1.2
2018-Nov-07 16:01N 54°58' W 005°01'0 0.0
2018-Nov-07 15:32N 54°58' W 005°01'5 8.3
2018-Nov-07 14:56N 55°02' W 005°07'819.7
2018-Nov-07 14:32N 54°58' W 005°19'1020.3
2018-Nov-07 14:03N 54°55' W 005°35'816.2
2018-Nov-07 13:33N 54°51' W 005°48'0 0.2
2018-Nov-07 13:02N 54°51' W 005°48'0 0.0
2018-Nov-07 12:32N 54°51' W 005°48'3 6.1
2018-Nov-07 12:02N 54°53' W 005°44'1019.6
2018-Nov-07 11:32N 54°58' W 005°29'1019.9
2018-Nov-07 11:02N 55°01' W 005°13'714.7
2018-Nov-07 10:32N 54°58' W 005°01'0 0.2
2018-Nov-07 10:00N 54°58' W 005°01'0 0.0
2018-Nov-07 09:32N 54°58' W 005°01'5 8.3
2018-Nov-07 08:57N 55°02' W 005°06'818.6
2018-Nov-07 08:32N 54°59' W 005°18'1019.4
2018-Nov-07 08:02N 54°55' W 005°34'917.7
2018-Nov-07 07:32N 54°51' W 005°48'0 0.2
2018-Nov-07 07:02N 54°51' W 005°48'0 0.0
2018-Nov-07 06:32N 54°51' W 005°48'0 0.0
2018-Nov-07 06:02N 54°51' W 005°48'2 4.9
2018-Nov-07 05:32N 54°52' W 005°45'917.6
2018-Nov-07 05:03N 54°56' W 005°31'917.9
2018-Nov-07 04:32N 55°00' W 005°17'20 4.0
2018-Nov-06 23:30N 54°51' W 005°48'0 0.0
2018-Nov-06 23:00N 54°51' W 005°48'0 0.0
2018-Nov-06 22:00N 54°51' W 005°48'511.0
2018-Nov-06 21:31N 54°54' W 005°40'919.5
2018-Nov-06 21:03N 54°58' W 005°26'119.6
2018-Nov-06 21:01N 54°58' W 005°25'1020.0
2018-Nov-06 20:30N 55°02' W 005°08'612.8
2018-Nov-06 20:03N 54°58' W 005°01'0 0.0
2018-Nov-06 20:00N 54°58' W 005°01'0 0.0
2018-Nov-06 19:30N 54°58' W 005°01'0 0.0
2018-Nov-06 19:00N 54°58' W 005°01'0 0.0
2018-Nov-06 18:30N 54°58' W 005°01'5 8.0
2018-Nov-06 17:53N 55°02' W 005°07'718.4
2018-Nov-06 17:30N 54°59' W 005°18'920.0
2018-Nov-06 17:04N 54°55' W 005°32'120.7
2018-Nov-06 17:01N 54°55' W 005°34'918.0
2018-Nov-06 16:31N 54°51' W 005°48'0 0.2
2018-Nov-06 16:01N 54°51' W 005°48'0 0.0
2018-Nov-06 15:58N 54°51' W 005°48'0 0.0
2018-Nov-06 15:30N 54°51' W 005°48'4 9.3
2018-Nov-06 15:04N 54°53' W 005°42'117.6
2018-Nov-06 15:01N 54°54' W 005°41'816.4
2018-Nov-06 14:30N 54°58' W 005°28'716.6
2018-Nov-06 14:03N 55°00' W 005°16'116.8
2018-Nov-06 14:01N 55°00' W 005°15'714.3
2018-Nov-06 13:30N 54°59' W 005°02'1 3.0
2018-Nov-06 13:03N 54°58' W 005°01'0 0.0
2018-Nov-06 13:00N 54°58' W 005°01'0 0.0
2018-Nov-06 12:30N 54°58' W 005°01'5 8.8
2018-Nov-06 11:57N 55°02' W 005°06'818.9
2018-Nov-06 11:30N 54°58' W 005°19'919.0
2018-Nov-06 11:03N 54°55' W 005°33'119.1
2018-Nov-06 11:00N 54°54' W 005°34'816.8
2018-Nov-06 10:31N 54°51' W 005°48'0 0.2
2018-Nov-06 10:03N 54°51' W 005°48'0 0.0
2018-Nov-06 10:00N 54°51' W 005°48'0 0.0
2018-Nov-06 09:30N 54°51' W 005°48'3 6.9
2018-Nov-06 09:04N 54°53' W 005°44'117.1
2018-Nov-06 09:01N 54°53' W 005°42'917.2
2018-Nov-06 08:31N 54°57' W 005°29'817.6
2018-Nov-06 08:04N 55°00' W 005°16'118.2
2018-Nov-06 08:01N 55°01' W 005°15'714.0
2018-Nov-06 07:30N 54°59' W 005°03'2 3.1
2018-Nov-06 06:58N 54°58' W 005°01'0 0.0
2018-Nov-06 06:25N 54°58' W 005°01'0 0.0
2018-Nov-06 06:01N 54°58' W 005°01'0 0.1
2018-Nov-06 05:58N 54°58' W 005°01'5 8.0
2018-Nov-06 05:21N 55°01' W 005°07'518.6
2018-Nov-06 05:04N 54°60' W 005°15'119.6
2018-Nov-06 05:00N 54°59' W 005°17'1020.2
2018-Nov-06 04:31N 54°55' W 005°33'919.2
2018-Nov-06 04:03N 54°52' W 005°47'013.3
2018-Nov-06 04:01N 54°51' W 005°48'1 1.0
2018-Nov-06 03:29N 54°51' W 005°48'0 0.0
2018-Nov-06 03:02N 54°51' W 005°48'0 0.1
2018-Nov-06 02:59N 54°51' W 005°48'0 0.0
2018-Nov-06 02:29N 54°51' W 005°48'0 0.0
2018-Nov-06 02:02N 54°51' W 005°48'0 0.0
2018-Nov-06 02:00N 54°51' W 005°48'4 8.9
2018-Nov-06 01:31N 54°53' W 005°42'1717.1
2018-Nov-06 00:31N 55°01' W 005°15'8 8.0
2018-Nov-05 23:28N 54°58' W 005°01'0 0.0
2018-Nov-05 22:55N 54°58' W 005°01'0 0.0
2018-Nov-05 22:26N 54°58' W 005°01'5 8.7
2018-Nov-05 21:51N 55°02' W 005°07'718.9
2018-Nov-05 21:30N 54°59' W 005°17'919.5
2018-Nov-05 21:03N 54°55' W 005°31'119.4
2018-Nov-05 21:01N 54°55' W 005°32'918.4
2018-Nov-05 20:30N 54°51' W 005°48'1 1.2
2018-Nov-05 20:03N 54°51' W 005°48'0 0.0
2018-Nov-05 20:00N 54°51' W 005°48'0 0.0
2018-Nov-05 19:30N 54°51' W 005°48'0 0.0
2018-Nov-05 19:03N 54°51' W 005°48'0 0.0
2018-Nov-05 19:00N 54°51' W 005°48'0 0.0
2018-Nov-05 18:30N 54°51' W 005°48'510.8
2018-Nov-05 18:03N 54°53' W 005°41'119.8
2018-Nov-05 18:00N 54°54' W 005°39'1020.2
2018-Nov-05 17:30N 54°58' W 005°23'1020.3
2018-Nov-05 17:02N 55°02' W 005°08'117.1
2018-Nov-05 17:00N 55°02' W 005°06'5 7.6
2018-Nov-05 16:20N 54°58' W 005°01'0 0.0
2018-Nov-05 16:02N 54°58' W 005°01'0 0.0
2018-Nov-05 15:56N 54°58' W 005°01'0 0.7
2018-Nov-05 15:30N 54°58' W 005°01'612.8
2018-Nov-05 15:03N 55°01' W 005°09'118.4
2018-Nov-05 15:00N 55°01' W 005°11'1019.8
2018-Nov-05 14:30N 54°56' W 005°26'919.8
2018-Nov-05 14:03N 54°53' W 005°41'119.5
2018-Nov-05 14:00N 54°53' W 005°42'4 4.0
2018-Nov-05 13:03N 54°51' W 005°48'0 0.0
2018-Nov-05 13:00N 54°51' W 005°48'0 0.0
2018-Nov-05 12:31N 54°51' W 005°48'4 8.6
2018-Nov-05 12:03N 54°53' W 005°42'118.2
2018-Nov-05 12:00N 54°54' W 005°41'917.9
2018-Nov-05 11:30N 54°58' W 005°27'817.3
2018-Nov-05 11:03N 55°01' W 005°15'116.9
2018-Nov-05 11:00N 55°01' W 005°13'714.1
2018-Nov-05 10:30N 54°58' W 005°02'1 2.1
2018-Nov-05 10:03N 54°58' W 005°01'0 0.0
2018-Nov-05 09:48N 54°58' W 005°01'0 0.0
2018-Nov-05 09:30N 54°58' W 005°01'811.2
2018-Nov-05 08:46N 55°00' W 005°14'2117.6
2018-Nov-05 07:34N 54°51' W 005°48'0 1.0
2018-Nov-05 07:29N 54°51' W 005°48'0 0.0
2018-Nov-05 05:46N 54°51' W 005°48'713.7
2018-Nov-05 05:17N 54°54' W 005°38'1217.4
2018-Nov-05 04:36N 54°59' W 005°19'3 0.8
2018-Nov-05 01:16N 55°00' W 005°14'1620.2
2018-Nov-05 00:30N 54°54' W 005°39'6 4.4
2018-Nov-04 23:11N 54°51' W 005°48'0 0.0
2018-Nov-04 23:02N 54°51' W 005°48'0 0.0
2018-Nov-04 22:59N 54°51' W 005°48'0 0.0
2018-Nov-04 22:29N 54°51' W 005°48'0 0.0
2018-Nov-04 22:02N 54°51' W 005°48'0 0.1
2018-Nov-04 21:59N 54°51' W 005°48'3 6.1
2018-Nov-04 21:31N 54°53' W 005°44'818.7
2018-Nov-04 21:03N 54°57' W 005°31'118.4
2018-Nov-04 21:01N 54°57' W 005°29'918.5
2018-Nov-04 20:31N 55°00' W 005°15'714.3
2018-Nov-04 20:02N 54°59' W 005°03'013.4
2018-Nov-04 20:00N 54°59' W 005°03'1 1.6
2018-Nov-04 19:08N 54°58' W 005°01'0 0.0
2018-Nov-04 19:02N 54°58' W 005°01'0 0.0
2018-Nov-04 18:53N 54°58' W 005°01'0 0.0
2018-Nov-04 18:30N 54°58' W 005°01'5 9.9
2018-Nov-04 18:00N 55°02' W 005°07'1819.2
2018-Nov-04 17:04N 54°54' W 005°35'120.6
2018-Nov-04 17:00N 54°54' W 005°37'713.5
2018-Nov-04 16:30N 54°51' W 005°48'0 0.1
2018-Nov-04 16:02N 54°51' W 005°48'0 0.0
2018-Nov-04 15:59N 54°51' W 005°48'0 0.0
2018-Nov-04 15:30N 54°51' W 005°48'3 7.2
2018-Nov-04 15:03N 54°53' W 005°43'117.9
2018-Nov-04 15:01N 54°53' W 005°42'917.7
2018-Nov-04 14:30N 54°57' W 005°28'817.5
2018-Nov-04 14:03N 55°00' W 005°16'117.4
2018-Nov-04 14:00N 55°01' W 005°14'713.3
2018-Nov-04 13:30N 54°59' W 005°03'2 3.9
2018-Nov-04 13:02N 54°58' W 005°01'0 0.1
2018-Nov-04 12:59N 54°58' W 005°01'0 0.0
2018-Nov-04 12:29N 54°58' W 005°01'0 0.0
2018-Nov-04 12:02N 54°58' W 005°01'0 0.1
2018-Nov-04 11:59N 54°58' W 005°01'0 0.0
2018-Nov-04 11:29N 54°58' W 005°01'0 0.0
2018-Nov-04 10:56N 54°58' W 005°01'0 0.0
2018-Nov-04 10:26N 54°58' W 005°01'0 0.0
2018-Nov-04 09:59N 54°58' W 005°01'0 0.0
2018-Nov-04 09:30N 54°58' W 005°01'510.3
2018-Nov-04 09:03N 55°01' W 005°06'116.8
2018-Nov-04 09:00N 55°02' W 005°07'917.1
2018-Nov-04 08:30N 54°57' W 005°20'716.4
2018-Nov-04 08:03N 54°54' W 005°32'117.0
2018-Nov-04 08:00N 54°54' W 005°33'917.3
2018-Nov-04 07:31N 54°52' W 005°48'1 1.7
2018-Nov-04 07:02N 54°51' W 005°48'0 0.1
2018-Nov-04 06:59N 54°51' W 005°48'0 0.0
2018-Nov-04 06:29N 54°51' W 005°48'0 0.0
2018-Nov-04 06:02N 54°51' W 005°48'0 0.0
2018-Nov-04 05:59N 54°51' W 005°48'0 0.0
2018-Nov-04 05:29N 54°51' W 005°48'0 0.0
2018-Nov-04 05:02N 54°51' W 005°48'0 0.0
2018-Nov-04 04:53N 54°51' W 005°48'0 0.0
2018-Nov-04 04:29N 54°51' W 005°48'0 0.0
2018-Nov-04 04:02N 54°51' W 005°48'0 0.0
2018-Nov-04 03:59N 54°51' W 005°48'0 0.0
2018-Nov-04 03:26N 54°51' W 005°48'0 0.0
2018-Nov-04 03:02N 54°51' W 005°48'0 0.0
2018-Nov-04 02:59N 54°51' W 005°48'0 0.0
2018-Nov-04 02:29N 54°51' W 005°48'0 0.0
2018-Nov-04 01:56N 54°51' W 005°48'0 0.0
2018-Nov-04 01:29N 54°51' W 005°48'0 0.0
2018-Nov-04 01:02N 54°51' W 005°48'0 0.0
2018-Nov-04 00:59N 54°51' W 005°48'0 0.0
2018-Nov-04 00:29N 54°51' W 005°48'0 0.0
2018-Nov-03 23:59N 54°51' W 005°48'0 0.0
2018-Nov-03 23:29N 54°51' W 005°48'0 0.0
2018-Nov-03 23:02N 54°51' W 005°48'0 0.1
2018-Nov-03 22:59N 54°51' W 005°48'0 0.0
2018-Nov-03 22:29N 54°51' W 005°48'2110.7
2018-Nov-03 20:30N 55°01' W 005°15'714.1
2018-Nov-03 19:59N 54°59' W 005°03'2 2.8
2018-Nov-03 19:24N 54°58' W 005°01'0 0.0
2018-Nov-03 18:57N 54°58' W 005°01'0 0.0
2018-Nov-03 18:30N 54°58' W 005°01'5 9.6
2018-Nov-03 17:58N 55°02' W 005°07'816.5
2018-Nov-03 17:30N 54°58' W 005°19'817.1
2018-Nov-03 17:03N 54°55' W 005°31'117.7
2018-Nov-03 17:00N 54°55' W 005°32'918.2
2018-Nov-03 16:30N 54°52' W 005°47'1 2.3
2018-Nov-03 16:03N 54°51' W 005°48'0 0.0
2018-Nov-03 16:00N 54°51' W 005°48'0 0.0
2018-Nov-03 15:30N 54°51' W 005°48'1 2.1
2018-Nov-03 15:03N 54°52' W 005°48'114.4
2018-Nov-03 15:01N 54°52' W 005°47'1019.7
2018-Nov-03 14:30N 54°57' W 005°32'818.8
2018-Nov-03 14:04N 55°01' W 005°18'119.2
2018-Nov-03 14:00N 55°01' W 005°17'815.1
2018-Nov-03 13:28N 54°59' W 005°03'2 3.9
2018-Nov-03 13:03N 54°58' W 005°01'0 0.0
2018-Nov-03 12:51N 54°58' W 005°01'0 0.0
2018-Nov-03 12:30N 54°58' W 005°01'2 4.0
2018-Nov-03 12:03N 54°59' W 005°03'416.5
2018-Nov-03 11:51N 55°02' W 005°07'720.9
2018-Nov-03 11:30N 55°03' W 005°19'920.3
2018-Nov-03 11:03N 54°58' W 005°33'121.8
2018-Nov-03 11:00N 54°58' W 005°34'1020.3
2018-Nov-03 10:31N 54°51' W 005°48'0 0.4
2018-Nov-03 10:03N 54°51' W 005°48'0 0.0
2018-Nov-03 10:00N 54°51' W 005°48'0 0.0
2018-Nov-03 09:30N 54°51' W 005°48'1 3.2
2018-Nov-03 09:03N 54°52' W 005°47'116.9
2018-Nov-03 09:00N 54°52' W 005°46'1020.4
2018-Nov-03 08:30N 54°59' W 005°32'919.7
2018-Nov-03 08:03N 55°02' W 005°17'121.2
2018-Nov-03 08:00N 55°02' W 005°16'816.9
2018-Nov-03 07:30N 54°58' W 005°02'1 1.6
2018-Nov-03 06:56N 54°58' W 005°01'0 0.0
2018-Nov-03 06:26N 54°58' W 005°01'0 0.0
2018-Nov-03 06:02N 54°58' W 005°01'0 0.1
2018-Nov-03 05:56N 54°58' W 005°01'1 1.5
2018-Nov-03 05:30N 54°58' W 005°02'716.3
2018-Nov-03 05:03N 55°01' W 005°14'121.2
2018-Nov-03 05:00N 55°00' W 005°16'1121.6
2018-Nov-03 04:30N 54°56' W 005°32'1021.6
2018-Nov-03 04:04N 54°51' W 005°48'111.8
2018-Nov-03 04:01N 54°51' W 005°48'0 0.2
2018-Nov-03 03:30N 54°51' W 005°48'0 0.0
2018-Nov-03 03:03N 54°51' W 005°48'0 0.0
2018-Nov-03 02:57N 54°51' W 005°48'0 0.0
2018-Nov-03 02:30N 54°51' W 005°48'0 0.0
2018-Nov-03 02:03N 54°51' W 005°48'0 0.0
2018-Nov-03 02:00N 54°51' W 005°48'2 3.9
2018-Nov-03 01:30N 54°52' W 005°46'920.4
2018-Nov-03 01:04N 54°57' W 005°33'120.6
2018-Nov-03 01:01N 54°58' W 005°31'1019.7
2018-Nov-03 00:29N 55°02' W 005°14'716.5
2018-Nov-03 00:03N 54°59' W 005°03'114.5
2018-Nov-03 00:01N 54°59' W 005°02'1 2.1
2018-Nov-02 23:30N 54°58' W 005°01'0 0.0
2018-Nov-02 23:03N 54°58' W 005°01'0 0.0
2018-Nov-02 23:00N 54°58' W 005°01'0 0.0
2018-Nov-02 22:30N 54°58' W 005°01'0 0.3
2018-Nov-02 22:03N 54°58' W 005°01'0 1.0
2018-Nov-02 22:00N 54°58' W 005°01'612.5
2018-Nov-02 21:30N 55°01' W 005°10'920.7
2018-Nov-02 21:04N 54°57' W 005°25'120.2
2018-Nov-02 21:00N 54°56' W 005°26'1019.9
2018-Nov-02 20:30N 54°53' W 005°42'4 8.4
2018-Nov-02 20:03N 54°51' W 005°48'0 0.0
2018-Nov-02 19:58N 54°51' W 005°48'0 0.0
2018-Nov-02 19:28N 54°51' W 005°48'0 0.0
2018-Nov-02 19:01N 54°51' W 005°48'0 0.1
2018-Nov-02 18:58N 54°51' W 005°48'0 0.0
2018-Nov-02 18:30N 54°51' W 005°48'510.2
2018-Nov-02 18:03N 54°53' W 005°41'119.3
2018-Nov-02 18:00N 54°54' W 005°40'1019.6
2018-Nov-02 17:30N 54°58' W 005°25'919.6
2018-Nov-02 17:03N 55°02' W 005°10'119.1
2018-Nov-02 17:00N 55°02' W 005°09'612.0
2018-Nov-02 16:30N 54°58' W 005°01'0 0.0
2018-Nov-02 16:02N 54°58' W 005°01'0 0.0
2018-Nov-02 15:44N 54°58' W 005°01'0 0.0
2018-Nov-02 15:30N 54°58' W 005°01'5 8.7
2018-Nov-02 14:56N 55°02' W 005°06'818.7
2018-Nov-02 14:30N 54°58' W 005°19'1021.0
2018-Nov-02 14:00N 54°54' W 005°36'814.2
2018-Nov-02 13:28N 54°51' W 005°48'0 0.0
2018-Nov-02 13:01N 54°51' W 005°48'0 0.0
2018-Nov-02 12:58N 54°51' W 005°48'0 0.0
2018-Nov-02 12:30N 54°51' W 005°48'511.3
2018-Nov-02 12:03N 54°54' W 005°41'118.4
2018-Nov-02 12:00N 54°54' W 005°39'918.0
2018-Nov-02 11:30N 54°58' W 005°25'817.6
2018-Nov-02 11:03N 55°01' W 005°12'117.8
2018-Nov-02 11:00N 55°01' W 005°11'713.5
2018-Nov-02 10:30N 54°58' W 005°01'0 0.0
2018-Nov-02 10:02N 54°58' W 005°01'0 0.0
2018-Nov-02 09:59N 54°58' W 005°01'0 0.0
2018-Nov-02 09:30N 54°58' W 005°01'5 9.3
2018-Nov-02 08:59N 55°01' W 005°06'817.4
2018-Nov-02 08:30N 54°58' W 005°20'817.4
2018-Nov-02 08:03N 54°55' W 005°32'117.3
2018-Nov-02 08:00N 54°55' W 005°33'917.4
2018-Nov-02 07:31N 54°52' W 005°48'1 1.6
2018-Nov-02 07:03N 54°51' W 005°48'0 0.0
2018-Nov-02 07:00N 54°51' W 005°48'0 0.0
2018-Nov-02 06:30N 54°51' W 005°48'0 0.0
2018-Nov-02 06:03N 54°51' W 005°48'0 0.2
2018-Nov-02 06:01N 54°51' W 005°48'5 9.8
2018-Nov-02 05:30N 54°54' W 005°41'919.8
2018-Nov-02 05:03N 54°58' W 005°27'119.9
2018-Nov-02 05:00N 54°58' W 005°25'918.3
2018-Nov-02 04:30N 55°01' W 005°11'613.7
2018-Nov-02 04:03N 54°58' W 005°02'0 9.7
2018-Nov-02 04:00N 54°58' W 005°01'0 0.0
2018-Nov-02 03:24N 54°58' W 005°01'0 0.0
2018-Nov-02 02:57N 54°58' W 005°01'0 0.0
2018-Nov-02 02:24N 54°58' W 005°01'0 0.0
2018-Nov-02 02:03N 54°58' W 005°01'0 0.3
2018-Nov-02 02:00N 54°58' W 005°01'510.4
2018-Nov-02 01:30N 55°02' W 005°07'816.9
2018-Nov-02 01:04N 54°58' W 005°19'117.5
2018-Nov-02 01:01N 54°58' W 005°20'117.9
2018-Nov-02 00:56N 54°57' W 005°22'618.1
2018-Nov-02 00:36N 54°55' W 005°32'218.6
2018-Nov-02 00:31N 54°54' W 005°35'817.4
2018-Nov-02 00:03N 54°51' W 005°48'0 9.3
2018-Nov-02 00:01N 54°51' W 005°48'0 0.2
2018-Nov-01 23:28N 54°51' W 005°48'0 0.0
2018-Nov-01 23:01N 54°51' W 005°48'0 0.0
2018-Nov-01 22:58N 54°51' W 005°48'0 0.0
2018-Nov-01 22:25N 54°51' W 005°48'0 0.0
2018-Nov-01 22:01N 54°51' W 005°48'0 0.0
2018-Nov-01 21:58N 54°51' W 005°48'3 6.6
2018-Nov-01 21:31N 54°53' W 005°44'919.4
2018-Nov-01 21:04N 54°57' W 005°30'120.7
2018-Nov-01 21:01N 54°57' W 005°29'1020.0
2018-Nov-01 20:31N 55°01' W 005°13'614.3
2018-Nov-01 20:04N 54°59' W 005°02'115.9
2018-Nov-01 20:00N 54°58' W 005°01'0 0.6
2018-Nov-01 19:30N 54°58' W 005°01'0 0.0
2018-Nov-01 19:03N 54°58' W 005°01'0 0.0
2018-Nov-01 18:51N 54°58' W 005°01'5 8.9
2018-Nov-01 18:17N 55°02' W 005°07'520.9
2018-Nov-01 18:03N 54°60' W 005°15'122.0
2018-Nov-01 18:01N 54°59' W 005°16'1121.7
2018-Nov-01 17:31N 54°55' W 005°33'920.0
2018-Nov-01 17:03N 54°51' W 005°48'0 1.6
2018-Nov-01 16:59N 54°51' W 005°48'0 0.1
2018-Nov-01 16:29N 54°51' W 005°48'0 0.0
2018-Nov-01 16:02N 54°51' W 005°48'0 0.0
2018-Nov-01 15:59N 54°51' W 005°48'0 0.0
2018-Nov-01 15:30N 54°51' W 005°48'4 9.3
2018-Nov-01 15:03N 54°53' W 005°42'119.4
2018-Nov-01 15:00N 54°53' W 005°40'1020.3
2018-Nov-01 14:30N 54°58' W 005°25'1019.9
2018-Nov-01 14:00N 55°02' W 005°08'610.7
2018-Nov-01 13:29N 54°58' W 005°01'0 0.0
2018-Nov-01 13:02N 54°58' W 005°01'0 0.0
2018-Nov-01 12:59N 54°58' W 005°01'0 0.1
2018-Nov-01 12:30N 54°58' W 005°01'512.1
2018-Nov-01 12:03N 55°02' W 005°08'117.5
2018-Nov-01 12:00N 55°02' W 005°09'918.3
2018-Nov-01 11:30N 54°57' W 005°23'818.8
2018-Nov-01 11:03N 54°54' W 005°37'119.0
2018-Nov-01 11:00N 54°54' W 005°38'612.1
2018-Nov-01 10:30N 54°51' W 005°48'0 0.0
2018-Nov-01 10:01N 54°51' W 005°48'0 0.0
2018-Nov-01 09:58N 54°51' W 005°48'0 0.0
2018-Nov-01 09:30N 54°51' W 005°48'4 9.1
2018-Nov-01 09:03N 54°53' W 005°42'118.2
2018-Nov-01 09:00N 54°54' W 005°41'917.4
2018-Nov-01 08:30N 54°58' W 005°27'816.9
2018-Nov-01 08:03N 55°01' W 005°15'116.9
2018-Nov-01 08:00N 55°01' W 005°14'713.9
2018-Nov-01 07:30N 54°59' W 005°02'1 2.3
2018-Nov-01 07:02N 54°58' W 005°01'0 0.0
2018-Nov-01 06:53N 54°58' W 005°01'0 0.0
2018-Nov-01 06:29N 54°58' W 005°01'0 0.0
2018-Nov-01 05:57N 54°58' W 005°01'5 9.0
2018-Nov-01 05:24N 55°01' W 005°07'720.1
2018-Nov-01 05:03N 54°59' W 005°18'120.3
2018-Nov-01 05:00N 54°59' W 005°19'1019.0
2018-Nov-01 04:30N 54°55' W 005°34'818.1
2018-Nov-01 04:03N 54°52' W 005°47'113.8
2018-Nov-01 04:01N 54°51' W 005°48'0 0.6
2018-Nov-01 03:30N 54°51' W 005°48'0 0.0
2018-Nov-01 03:03N 54°51' W 005°48'0 0.0
2018-Nov-01 03:00N 54°51' W 005°48'  

Dump ship's entire track history